Pratica di Mare, Italy

1:17 AM CET on February 23, 2017 (GMT +0100)
Torvajanica Alta, Pomezia | | Change Station

Elev 128 ft 41.63 °N, 12.49 °E | Updated 8 seconds ago

Partly Cloudy
Partly Cloudy
54.7 °F
Feels Like 54.7 °F
N
3.4
Wind Variable Wind from East
Gusts 3.4 mph

Today
High -- | Low -- °F
--% Chance of Precip.
Yesterday
High -- | Low -- °F
Precip. -- in
Pressure 30.12 in
Visibility 6.2 miles
Clouds Mostly Cloudy 6000 ft
Dew Point 48 °F
Humidity 78%
Rainfall 0.00 in
Snow Depth Not available.
6:54 AM 5:53 PM
Waning Crescent, 14% visible
METAR LIRA 222350Z VRB02KT 9999 BKN060 11/08 Q1020
Pressure 30.12 in
Visibility 6.2 miles
Clouds Mostly Cloudy 6000 ft
Dew Point 48 °F
Humidity 78%
Rainfall 0.00 in
Snow Depth Not available.
6:54 AM 5:53 PM
Waning Crescent, 14% visible
METAR LIRA 222350Z VRB02KT 9999 BKN060 11/08 Q1020

Get Your Daily Forecast Email!

Thanks for signing up!

Be on the lookout for a verification email in your inbox.

You'll start receiving the daily forecast at 8 AM.

×

10-Day Weather Forecast

×

Almanac

Astronomy

Feb. 23, 2017 Rise Set
Actual Time
Civil Twilight
Nautical Twilight
Astronomical Twilight
Moon
Length of Visible Light
Length of Day
Tomorrow will be .
, % of the Moon is Illuminated

Today's Extremes

Country Highs Country Lows

Community

WunderPhotos

Upload Photos

1,962,540 photos uploaded!

WunderBlog® & News

Nearby

Air Quality

  Air Quality AQ Index Pollutant
Not available.

Snow Depth

Station Depth Elevation

Earthquake Activity

City Distance Mag. Time & Date
Minimum magnitude displayed is 2.5.

Coastal Water Temperatures

Place Temperature

Stations

Nearby Weather Stations

Station Location Temp. Windchill Dew Point Humidity Wind Precip. Elev Updated Type